createdAt,value
2022-12-31T00:00:30.096Z,98876.09
2022-12-31T00:01:01.557Z,98872.56
2022-12-31T00:01:32.999Z,98880.56
2022-12-31T00:02:04.569Z,98870.47
2022-12-31T00:02:36.194Z,98879.44
2022-12-31T00:03:07.816Z,98869.84
2022-12-31T00:03:39.397Z,98870.97
2022-12-31T00:04:10.896Z,98866.81
2022-12-31T00:04:42.331Z,98871.44
2022-12-31T00:05:13.799Z,98879.63
2022-12-31T00:05:45.254Z,98886.69
2022-12-31T00:06:16.687Z,98883.47
2022-12-31T00:06:48.164Z,98883.16
2022-12-31T00:07:19.628Z,98884.75
2022-12-31T00:07:51.142Z,98873.69
2022-12-31T00:08:22.561Z,98873.38
2022-12-31T00:08:54.004Z,98865.66
2022-12-31T00:09:25.420Z,98879.44
2022-12-31T00:09:56.836Z,98878.31
2022-12-31T00:10:28.386Z,98882.78
2022-12-31T00:10:59.854Z,98876.53
2022-12-31T00:11:31.260Z,98879.94
2022-12-31T00:12:02.755Z,98885.22
2022-12-31T00:12:34.347Z,98878.00
2022-12-31T00:13:05.853Z,98880.56
2022-12-31T00:13:37.272Z,98883.78
2022-12-31T00:14:08.790Z,98883.59
2022-12-31T00:14:40.237Z,98877.03
2022-12-31T00:15:11.855Z,98869.84
2022-12-31T00:15:43.248Z,98863.75
2022-12-31T00:16:14.660Z,98873.06
2022-12-31T00:16:46.093Z,98886.53
2022-12-31T00:17:17.621Z,98873.53
2022-12-31T00:17:49.112Z,98878.50
2022-12-31T00:18:20.519Z,98862.66
2022-12-31T00:18:51.925Z,98868.41
2022-12-31T00:19:23.350Z,98869.38
2022-12-31T00:19:54.772Z,98862.34
2022-12-31T00:20:26.246Z,98876.28
2022-12-31T00:20:57.672Z,98870.00
2022-12-31T00:21:29.160Z,98873.84
2022-12-31T00:22:00.690Z,98866.16
2022-12-31T00:22:32.115Z,98867.28
2022-12-31T00:23:03.571Z,98872.25
2022-12-31T00:23:35.016Z,98874.84
2022-12-31T00:24:06.513Z,98874.03
2022-12-31T00:24:37.937Z,98870.00
2022-12-31T00:25:09.374Z,98871.13
2022-12-31T00:25:40.804Z,98874.34
2022-12-31T00:26:12.249Z,98867.16
2022-12-31T00:26:43.736Z,98864.25
2022-12-31T00:27:15.143Z,98877.06
2022-12-31T00:27:46.610Z,98860.72
2022-12-31T00:28:18.079Z,98861.03
2022-12-31T00:28:49.557Z,98856.06
2022-12-31T00:29:20.979Z,98868.09
2022-12-31T00:29:52.424Z,98862.97
2022-12-31T00:30:23.889Z,98861.03
2022-12-31T00:30:55.360Z,98862.16
2022-12-31T00:31:26.860Z,98861.34
2022-12-31T00:31:58.285Z,98868.72
2022-12-31T00:32:29.696Z,98860.06
2022-12-31T00:33:01.151Z,98878.00
2022-12-31T00:33:32.656Z,98892.44
2022-12-31T00:34:04.199Z,98882.66
2022-12-31T00:34:35.668Z,98878.00
2022-12-31T00:35:07.070Z,98906.88
2022-12-31T00:35:38.559Z,98880.13
2022-12-31T00:36:10.060Z,98867.59
2022-12-31T00:36:41.482Z,98877.69
2022-12-31T00:37:12.876Z,98865.19
2022-12-31T00:37:44.337Z,98879.63
2022-12-31T00:38:15.889Z,98867.91
2022-12-31T00:38:47.270Z,98894.38
2022-12-31T00:39:18.768Z,98878.00
2022-12-31T00:39:50.212Z,98879.13
2022-12-31T00:40:21.750Z,98879.63
2022-12-31T00:40:53.231Z,98879.94
2022-12-31T00:41:24.688Z,98874.81
2022-12-31T00:41:56.105Z,98882.97
2022-12-31T00:42:27.676Z,98875.28
2022-12-31T00:42:59.129Z,98878.81
2022-12-31T00:43:30.563Z,98866.00
2022-12-31T00:44:02.076Z,98879.13
2022-12-31T00:44:33.541Z,98878.00
2022-12-31T00:45:05.214Z,98874.00
2022-12-31T00:45:36.629Z,98871.28
2022-12-31T00:46:08.197Z,98874.47
2022-12-31T00:47:09.757Z,98874.31
2022-12-31T00:47:41.242Z,98881.06
2022-12-31T00:48:12.675Z,98878.00
2022-12-31T00:48:44.316Z,98878.50
2022-12-31T00:49:15.855Z,98885.88
2022-12-31T00:49:47.341Z,98877.69
2022-12-31T00:50:18.794Z,98891.00
2022-12-31T00:50:50.231Z,98872.88
2022-12-31T00:51:21.689Z,98882.34
2022-12-31T00:51:53.132Z,98874.16
2022-12-31T00:52:24.636Z,98880.75
2022-12-31T00:52:56.117Z,98875.78
2022-12-31T00:53:27.541Z,98869.84
2022-12-31T00:53:58.962Z,98884.59
2022-12-31T00:54:30.402Z,98875.28
2022-12-31T00:55:01.876Z,98876.09
2022-12-31T00:55:33.287Z,98870.31
2022-12-31T00:56:04.773Z,98866.00
2022-12-31T00:56:36.226Z,98878.00
2022-12-31T00:57:07.788Z,98872.25
2022-12-31T00:57:39.332Z,98872.25
2022-12-31T00:58:10.789Z,98867.59
2022-12-31T00:58:42.253Z,98874.66
2022-12-31T00:59:13.750Z,98874.16
2022-12-31T00:59:45.220Z,98871.75
2022-12-31T01:00:16.634Z,98879.63
2022-12-31T01:00:48.120Z,98877.69
2022-12-31T01:01:19.667Z,98882.34
2022-12-31T01:01:51.345Z,98863.75
2022-12-31T01:02:22.995Z,98873.84
2022-12-31T01:02:54.692Z,98867.13
2022-12-31T01:03:26.325Z,98866.31
2022-12-31T01:03:57.787Z,98866.63
2022-12-31T01:04:29.262Z,98864.38
2022-12-31T01:05:00.721Z,98869.53
2022-12-31T01:05:32.162Z,98869.03
2022-12-31T01:06:03.640Z,98866.81
2022-12-31T01:06:35.032Z,98874.97
2022-12-31T01:07:06.523Z,98867.13
2022-12-31T01:07:37.941Z,98866.63
2022-12-31T01:08:09.558Z,98870.16
2022-12-31T01:08:40.975Z,98866.00
2022-12-31T01:09:12.474Z,98869.53
2022-12-31T01:09:43.883Z,98866.00
2022-12-31T01:10:15.460Z,98853.19
2022-12-31T01:10:46.875Z,98861.34
2022-12-31T01:11:18.318Z,98849.34
2022-12-31T01:11:49.734Z,98848.22
2022-12-31T01:12:21.193Z,98851.56
2022-12-31T01:12:52.662Z,98857.81
2022-12-31T01:13:24.161Z,98852.69
2022-12-31T01:13:55.585Z,98852.38
2022-12-31T01:14:27.025Z,98854.47
2022-12-31T01:14:58.551Z,98845.50
2022-12-31T01:15:30.052Z,98831.88
2022-12-31T01:16:01.538Z,98850.63
2022-12-31T01:16:33.055Z,98846.28
2022-12-31T01:17:04.541Z,98841.97
2022-12-31T01:17:36.155Z,98847.41
2022-12-31T01:18:07.569Z,98846.91
2022-12-31T01:18:39.120Z,98839.06
2022-12-31T01:19:10.537Z,98840.66
2022-12-31T01:19:42.012Z,98839.88
2022-12-31T01:20:13.453Z,98838.75
2022-12-31T01:20:44.839Z,98843.41
2022-12-31T01:21:16.301Z,98827.84
2022-12-31T01:21:47.773Z,98828.97
2022-12-31T01:22:19.235Z,98839.56
2022-12-31T01:22:50.685Z,98825.13
2022-12-31T01:23:22.152Z,98835.53
2022-12-31T01:23:53.660Z,98828.66
2022-12-31T01:24:25.099Z,98840.03
2022-12-31T01:24:56.528Z,98833.28
2022-12-31T01:25:27.962Z,98825.59
2022-12-31T01:25:59.408Z,98836.03
2022-12-31T01:26:30.876Z,98831.88
2022-12-31T01:27:02.307Z,98844.19
2022-12-31T01:27:33.767Z,98827.84
2022-12-31T01:28:05.209Z,98821.91
2022-12-31T01:28:36.670Z,98820.78
2022-12-31T01:29:08.332Z,98826.06
2022-12-31T01:29:39.805Z,98818.38
2022-12-31T01:30:11.210Z,98826.88
2022-12-31T01:30:42.809Z,98821.59
2022-12-31T01:31:14.312Z,98819.19
2022-12-31T01:31:45.848Z,98825.44
2022-12-31T01:32:17.478Z,98819.66
2022-12-31T01:32:48.909Z,98811.00
2022-12-31T01:33:20.322Z,98819.81
2022-12-31T01:33:51.769Z,98826.38
2022-12-31T01:34:23.281Z,98841.44
2022-12-31T01:34:54.693Z,98818.38
2022-12-31T01:35:26.171Z,98825.44
2022-12-31T01:35:57.622Z,98824.00
2022-12-31T01:36:29.093Z,98823.50
2022-12-31T01:37:00.483Z,98815.34
2022-12-31T01:37:31.894Z,98816.16
2022-12-31T01:38:03.355Z,98807.03
2022-12-31T01:38:34.700Z,98829.63
2022-12-31T01:39:06.093Z,98806.53
2022-12-31T01:39:37.563Z,98798.03
2022-12-31T01:40:08.981Z,98820.78
2022-12-31T01:40:40.533Z,98817.75
2022-12-31T01:41:11.966Z,98804.94
2022-12-31T01:41:43.386Z,98813.91
2022-12-31T01:42:14.819Z,98813.09
2022-12-31T01:42:46.365Z,98813.72
2022-12-31T01:43:17.768Z,98812.63
2022-12-31T01:43:49.172Z,98817.75
2022-12-31T01:44:20.653Z,98817.75
2022-12-31T01:44:52.167Z,98811.00
2022-12-31T01:45:23.744Z,98824.31
2022-12-31T01:45:55.180Z,98818.56
2022-12-31T01:46:26.672Z,98813.09
2022-12-31T01:46:58.182Z,98815.81
2022-12-31T01:47:29.703Z,98810.38
2022-12-31T01:48:01.137Z,98819.34
2022-12-31T01:48:32.557Z,98807.00
2022-12-31T01:49:04.026Z,98818.56
2022-12-31T01:49:35.565Z,98807.47
2022-12-31T01:50:07.045Z,98797.56
2022-12-31T01:50:38.459Z,98813.59
2022-12-31T01:51:09.851Z,98806.53
2022-12-31T01:51:41.299Z,98820.16
2022-12-31T01:52:12.732Z,98803.00
2022-12-31T01:52:44.217Z,98806.22
2022-12-31T01:53:15.631Z,98790.66
2022-12-31T01:53:47.037Z,98806.84
2022-12-31T01:54:18.476Z,98800.28
2022-12-31T01:54:49.926Z,98816.94
2022-12-31T01:55:21.395Z,98801.72
2022-12-31T01:55:52.825Z,98810.06
2022-12-31T01:56:24.302Z,98803.81
2022-12-31T01:56:55.819Z,98814.22
2022-12-31T01:57:27.299Z,98811.19
2022-12-31T01:57:58.771Z,98790.81
2022-12-31T01:58:30.321Z,98811.50
2022-12-31T01:59:01.761Z,98807.16
2022-12-31T01:59:33.272Z,98811.50
2022-12-31T02:00:05.009Z,98804.94
2022-12-31T02:00:36.516Z,98806.38
2022-12-31T02:01:07.958Z,98801.41
2022-12-31T02:01:39.649Z,98797.06
2022-12-31T02:02:11.209Z,98797.88
2022-12-31T02:02:42.791Z,98808.78
2022-12-31T02:03:14.342Z,98799.78
2022-12-31T02:03:45.802Z,98800.59
2022-12-31T02:04:17.217Z,98801.72
2022-12-31T02:04:48.745Z,98808.28
2022-12-31T02:05:20.236Z,98786.97
2022-12-31T02:05:51.969Z,98795.16
2022-12-31T02:06:23.428Z,98800.91
2022-12-31T02:06:54.883Z,98796.75
2022-12-31T02:07:26.359Z,98802.19
2022-12-31T02:07:57.953Z,98797.06
2022-12-31T02:08:29.351Z,98796.91
2022-12-31T02:09:00.797Z,98803.63
2022-12-31T02:09:32.255Z,98793.53
2022-12-31T02:10:03.707Z,98798.19
2022-12-31T02:10:35.114Z,98795.16
2022-12-31T02:11:06.604Z,98800.91
2022-12-31T02:11:37.977Z,98805.56
2022-12-31T02:12:09.475Z,98800.09
2022-12-31T02:12:41.034Z,98806.03
2022-12-31T02:13:12.472Z,98779.91
2022-12-31T02:13:43.928Z,98806.84
2022-12-31T02:14:15.346Z,98795.16
2022-12-31T02:14:46.785Z,98808.78
2022-12-31T02:15:18.181Z,98801.09
2022-12-31T02:15:49.665Z,98787.78
2022-12-31T02:16:21.191Z,98804.44
2022-12-31T02:16:52.676Z,98788.09
2022-12-31T02:17:24.153Z,98788.09
2022-12-31T02:17:55.542Z,98782.16
2022-12-31T02:18:26.950Z,98783.91
2022-12-31T02:18:58.467Z,98798.50
2022-12-31T02:19:29.866Z,98768.22
2022-12-31T02:20:01.361Z,98762.59
2022-12-31T02:20:32.832Z,98774.16
2022-12-31T02:21:04.296Z,98761.00
2022-12-31T02:21:35.885Z,98761.78
2022-12-31T02:22:07.450Z,98768.53
2022-12-31T02:22:38.902Z,98781.19
2022-12-31T02:23:10.749Z,98795.28
2022-12-31T02:23:42.439Z,98795.78
2022-12-31T02:24:13.841Z,98795.59
2022-12-31T02:24:45.250Z,98804.13
2022-12-31T02:25:16.711Z,98792.91
2022-12-31T02:25:48.193Z,98774.94
2022-12-31T02:26:19.769Z,98772.22
2022-12-31T02:26:51.216Z,98783.13
2022-12-31T02:27:22.671Z,98794.84
2022-12-31T02:27:54.056Z,98786.97
2022-12-31T02:28:25.502Z,98769.00
2022-12-31T02:28:56.941Z,98793.22
2022-12-31T02:29:28.333Z,98792.41
2022-12-31T02:29:59.799Z,98796.44
2022-12-31T02:30:31.246Z,98785.84
2022-12-31T02:31:02.800Z,98799.47
2022-12-31T02:31:34.226Z,98803.00
2022-12-31T02:32:05.657Z,98791.31
2022-12-31T02:32:37.120Z,98797.56
2022-12-31T02:33:08.564Z,98780.56
2022-12-31T02:33:40.061Z,98803.66
2022-12-31T02:34:11.472Z,98797.25
2022-12-31T02:34:42.898Z,98790.19
2022-12-31T02:35:14.364Z,98795.63
2022-12-31T02:35:45.894Z,98783.63
2022-12-31T02:36:17.349Z,98803.97
2022-12-31T02:36:48.795Z,98822.88
2022-12-31T02:37:20.257Z,98797.88
2022-12-31T02:37:51.676Z,98813.09
2022-12-31T02:38:23.130Z,98810.38
2022-12-31T02:38:54.547Z,98799.47
2022-12-31T02:39:25.957Z,98801.41
2022-12-31T02:39:57.440Z,98798.19
2022-12-31T02:40:28.847Z,98821.28
2022-12-31T02:41:00.226Z,98800.59
2022-12-31T02:41:31.704Z,98796.13
2022-12-31T02:42:03.165Z,98801.41
2022-12-31T02:42:34.593Z,98794.50
2022-12-31T02:43:06.002Z,98802.19
2022-12-31T02:43:37.431Z,98789.38
2022-12-31T02:44:08.834Z,98784.72
2022-12-31T02:44:40.262Z,98790.66
2022-12-31T02:45:11.725Z,98840.34
2022-12-31T02:45:43.143Z,98772.72
2022-12-31T02:46:14.660Z,98778.97
2022-12-31T02:46:46.214Z,98781.69
2022-12-31T02:47:17.750Z,98768.06
2022-12-31T02:47:49.201Z,98804.63
2022-12-31T02:48:20.673Z,98773.53
2022-12-31T02:48:52.102Z,98803.81
2022-12-31T02:49:23.510Z,98785.22
2022-12-31T02:49:54.971Z,98799.34
2022-12-31T02:50:26.402Z,98800.28
2022-12-31T02:50:57.811Z,98795.94
2022-12-31T02:51:29.272Z,98796.59
2022-12-31T02:52:00.861Z,98793.22
2022-12-31T02:52:32.261Z,98790.81
2022-12-31T02:53:03.682Z,98774.94
2022-12-31T02:53:35.113Z,98798.19
2022-12-31T02:54:06.495Z,98794.16
2022-12-31T02:54:37.963Z,98795.47
2022-12-31T02:55:09.371Z,98784.25
2022-12-31T02:55:40.795Z,98786.97
2022-12-31T02:56:12.242Z,98773.34
2022-12-31T02:56:43.709Z,98774.16
2022-12-31T02:57:15.294Z,98788.91
2022-12-31T02:57:46.759Z,98775.59
2022-12-31T02:58:18.261Z,98788.09
2022-12-31T02:58:49.638Z,98770.13
2022-12-31T02:59:21.029Z,98779.91
2022-12-31T02:59:52.438Z,98803.31
2022-12-31T03:00:23.908Z,98794.34
2022-12-31T03:00:55.445Z,98810.38
2022-12-31T03:01:27.046Z,98794.84
2022-12-31T03:01:58.653Z,98794.84
2022-12-31T03:02:30.246Z,98782.00
2022-12-31T03:03:01.767Z,98793.22
2022-12-31T03:03:33.237Z,98810.38
2022-12-31T03:04:04.720Z,98778.47
2022-12-31T03:04:36.171Z,98800.28
2022-12-31T03:05:07.638Z,98800.59
2022-12-31T03:05:39.079Z,98803.31
2022-12-31T03:06:10.515Z,98781.53
2022-12-31T03:06:41.969Z,98800.59
2022-12-31T03:07:13.418Z,98801.72
2022-12-31T03:07:44.940Z,98779.91
2022-12-31T03:08:16.445Z,98800.28
2022-12-31T03:08:47.949Z,98791.31
2022-12-31T03:09:19.350Z,98801.09
2022-12-31T03:09:50.809Z,98787.78
2022-12-31T03:10:22.358Z,98796.75
2022-12-31T03:10:53.915Z,98804.94
2022-12-31T03:11:25.334Z,98799.78
2022-12-31T03:11:56.765Z,98824.00
2022-12-31T03:12:28.171Z,98796.75
2022-12-31T03:12:59.678Z,98804.13
2022-12-31T03:13:31.129Z,98820.78
2022-12-31T03:14:02.549Z,98813.91
2022-12-31T03:14:34.005Z,98794.84
2022-12-31T03:15:05.516Z,98804.13
2022-12-31T03:15:36.992Z,98783.63
2022-12-31T03:16:08.427Z,98801.56
2022-12-31T03:16:39.919Z,98824.00
2022-12-31T03:17:11.364Z,98796.44
2022-12-31T03:17:42.773Z,98817.44
2022-12-31T03:18:14.245Z,98807.34
2022-12-31T03:18:45.667Z,98811.19
2022-12-31T03:19:17.084Z,98797.88
2022-12-31T03:19:48.510Z,98810.88
2022-12-31T03:20:19.950Z,98808.63
2022-12-31T03:20:51.412Z,98837.50
2022-12-31T03:21:23.003Z,98807.50
2022-12-31T03:21:54.474Z,98810.06
2022-12-31T03:22:25.876Z,98817.13
2022-12-31T03:22:57.434Z,98828.81
2022-12-31T03:23:28.891Z,98807.34
2022-12-31T03:24:00.311Z,98814.41
2022-12-31T03:24:31.757Z,98820.16
2022-12-31T03:25:03.206Z,98803.63
2022-12-31T03:25:34.666Z,98822.09
2022-12-31T03:26:06.043Z,98816.94
2022-12-31T03:26:37.503Z,98834.09
2022-12-31T03:27:09.011Z,98822.88
2022-12-31T03:27:40.431Z,98839.56
2022-12-31T03:28:11.843Z,98822.88
2022-12-31T03:28:43.308Z,98825.44
2022-12-31T03:29:14.709Z,98832.66
2022-12-31T03:29:46.107Z,98836.50
2022-12-31T03:30:17.549Z,98832.97
2022-12-31T03:30:48.990Z,98820.47
2022-12-31T03:31:20.439Z,98830.56
2022-12-31T03:31:52.156Z,98824.63
2022-12-31T03:32:23.603Z,98832.19
2022-12-31T03:32:55.035Z,98841.97
2022-12-31T03:33:26.467Z,98830.25
2022-12-31T03:33:57.918Z,98841.97
2022-12-31T03:34:29.360Z,98840.03
2022-12-31T03:35:00.807Z,98840.34
2022-12-31T03:35:32.300Z,98832.19
2022-12-31T03:36:03.728Z,98829.94
2022-12-31T03:36:35.242Z,98835.72
2022-12-31T03:37:06.641Z,98902.22
2022-12-31T03:37:38.170Z,98827.22
2022-12-31T03:38:09.580Z,98844.38
2022-12-31T03:38:41.020Z,98843.56
2022-12-31T03:39:12.469Z,98847.41
2022-12-31T03:39:43.881Z,98859.13
2022-12-31T03:40:15.268Z,98843.56
2022-12-31T03:40:46.726Z,98836.19
2022-12-31T03:41:18.089Z,98841.97
2022-12-31T03:41:49.524Z,98843.88
2022-12-31T03:42:20.942Z,98841.97
2022-12-31T03:42:52.377Z,98843.06
2022-12-31T03:43:23.937Z,98852.06
2022-12-31T03:43:55.325Z,98848.53
2022-12-31T03:44:26.870Z,98827.22
2022-12-31T03:44:58.286Z,98840.03
2022-12-31T03:45:29.849Z,98842.75
2022-12-31T03:46:01.412Z,98835.38
2022-12-31T03:46:32.900Z,98840.84
2022-12-31T03:47:04.325Z,98845.66
2022-12-31T03:47:35.775Z,98840.22
2022-12-31T03:48:07.286Z,98843.56
2022-12-31T03:48:38.732Z,98844.06
2022-12-31T03:49:10.170Z,98849.81
2022-12-31T03:49:41.707Z,98858.81
2022-12-31T03:50:13.128Z,98837.31
2022-12-31T03:50:44.580Z,98852.38
2022-12-31T03:51:16.004Z,98863.59
2022-12-31T03:51:47.404Z,98868.22
2022-12-31T03:52:18.875Z,98853.97
2022-12-31T03:52:50.450Z,98852.69
2022-12-31T03:53:21.855Z,98839.88
2022-12-31T03:53:53.315Z,98843.41
2022-12-31T03:54:24.708Z,98855.09
2022-12-31T03:54:56.568Z,98858.31
2022-12-31T03:55:28.021Z,98852.84
2022-12-31T03:55:59.415Z,98854.47
2022-12-31T03:56:30.853Z,98854.78
2022-12-31T03:57:02.291Z,98878.19
2022-12-31T03:57:33.677Z,98859.91
2022-12-31T03:58:05.134Z,98847.09
2022-12-31T03:58:36.576Z,98870.50
2022-12-31T03:59:07.991Z,98859.75
2022-12-31T03:59:39.486Z,98852.38
2022-12-31T04:00:10.977Z,98852.06
2022-12-31T04:00:42.447Z,98870.66
2022-12-31T04:01:13.991Z,98862.16
2022-12-31T04:01:45.634Z,98845.00
2022-12-31T04:02:17.284Z,98843.41
2022-12-31T04:02:48.814Z,98852.06
2022-12-31T04:03:20.297Z,98857.81
2022-12-31T04:03:51.837Z,98848.22
2022-12-31T04:04:23.267Z,98855.59
2022-12-31T04:04:54.729Z,98857.19
2022-12-31T04:05:26.233Z,98849.34
2022-12-31T04:05:57.741Z,98852.06
2022-12-31T04:06:29.271Z,98854.78
2022-12-31T04:07:00.817Z,98858.31
2022-12-31T04:07:32.213Z,98864.25
2022-12-31T04:08:03.643Z,98861.03
2022-12-31T04:08:35.149Z,98875.16
2022-12-31T04:09:06.563Z,98862.16
2022-12-31T04:09:37.974Z,98885.25
2022-12-31T04:10:09.397Z,98860.22
2022-12-31T04:10:40.936Z,98866.50
2022-12-31T04:11:17.392Z,98861.84
2022-12-31T04:11:52.013Z,98861.03
2022-12-31T04:12:23.472Z,98866.66
2022-12-31T04:12:55.012Z,98851.25
2022-12-31T04:13:26.434Z,98870.31
2022-12-31T04:13:57.952Z,98864.56
2022-12-31T04:14:29.358Z,98862.16
2022-12-31T04:15:03.503Z,98851.25
2022-12-31T04:15:34.882Z,98863.75
2022-12-31T04:16:06.418Z,98862.34
2022-12-31T04:16:37.960Z,98866.66
2022-12-31T04:17:09.396Z,98863.75
2022-12-31T04:17:40.817Z,98856.72
2022-12-31T04:18:12.262Z,98860.41
2022-12-31T04:18:43.761Z,98852.84
2022-12-31T04:19:15.189Z,98843.88
2022-12-31T04:19:46.644Z,98853.97
2022-12-31T04:20:18.084Z,98843.88
2022-12-31T04:20:49.606Z,98849.16
2022-12-31T04:21:21.088Z,98859.44
2022-12-31T04:21:52.589Z,98849.50
2022-12-31T04:22:24.015Z,98846.28
2022-12-31T04:22:55.493Z,98843.06
2022-12-31T04:23:26.937Z,98843.88
2022-12-31T04:23:58.378Z,98844.38
2022-12-31T04:24:29.821Z,98854.47
2022-12-31T04:25:01.244Z,98846.28
2022-12-31T04:25:32.656Z,98834.28
2022-12-31T04:26:04.081Z,98838.13
2022-12-31T04:26:35.539Z,98844.69
2022-12-31T04:27:07.949Z,98856.38
2022-12-31T04:27:39.776Z,98832.19
2022-12-31T04:28:11.217Z,98832.66
2022-12-31T04:28:42.636Z,98853.84
2022-12-31T04:29:14.051Z,98843.56
2022-12-31T04:29:45.471Z,98874.84
2022-12-31T04:30:16.983Z,98838.44
2022-12-31T04:30:48.430Z,98843.56
2022-12-31T04:31:19.919Z,98848.38
2022-12-31T04:31:51.535Z,98840.03
2022-12-31T04:32:23.021Z,98849.03
2022-12-31T04:32:54.512Z,98840.03
2022-12-31T04:33:25.989Z,98856.06
2022-12-31T04:33:57.423Z,98868.09
2022-12-31T04:34:28.892Z,98842.44
2022-12-31T04:35:00.391Z,98883.31
2022-12-31T04:35:31.770Z,98840.84
2022-12-31T04:36:03.181Z,98847.59
2022-12-31T04:36:34.611Z,98833.47
2022-12-31T04:37:06.033Z,98834.59
2022-12-31T04:37:37.569Z,98856.72
2022-12-31T04:38:08.986Z,98853.66
2022-12-31T04:38:40.388Z,98858.31
2022-12-31T04:39:11.852Z,98852.84
2022-12-31T04:39:43.340Z,98849.50
2022-12-31T04:40:14.741Z,98852.53
2022-12-31T04:40:46.148Z,98854.47
2022-12-31T04:41:17.611Z,98862.16
2022-12-31T04:41:49.031Z,98858.31
2022-12-31T04:42:20.568Z,98853.34
2022-12-31T04:42:52.005Z,98846.28
2022-12-31T04:43:23.512Z,98846.91
2022-12-31T04:43:55.012Z,98854.78
2022-12-31T04:44:26.434Z,98852.84
2022-12-31T04:44:57.878Z,98842.59
2022-12-31T04:45:29.288Z,98871.44
2022-12-31T04:46:00.861Z,98857.81
2022-12-31T04:46:32.277Z,98870.31
2022-12-31T04:47:03.752Z,98857.19
2022-12-31T04:47:35.256Z,98855.28
2022-12-31T04:48:06.786Z,98855.91
2022-12-31T04:48:38.176Z,98867.59
2022-12-31T04:49:09.577Z,98872.75
2022-12-31T04:49:41.000Z,98864.88
2022-12-31T04:50:12.388Z,98867.28
2022-12-31T04:50:43.778Z,98862.66
2022-12-31T04:51:15.208Z,98868.91
2022-12-31T04:51:46.596Z,98868.59
2022-12-31T04:52:18.093Z,98856.06
2022-12-31T04:52:49.641Z,98867.78
2022-12-31T04:53:21.165Z,98864.25
2022-12-31T04:53:52.607Z,98861.34
2022-12-31T04:54:24.075Z,98860.22
2022-12-31T04:54:55.506Z,98879.31
2022-12-31T04:55:26.903Z,98864.56
2022-12-31T04:55:58.330Z,98861.53
2022-12-31T04:56:29.784Z,98859.91
2022-12-31T04:57:01.211Z,98864.75
2022-12-31T04:57:32.646Z,98872.13
2022-12-31T04:58:04.121Z,98869.22
2022-12-31T04:58:35.577Z,98869.69
2022-12-31T04:59:07.019Z,98880.13
2022-12-31T04:59:38.442Z,98868.59
2022-12-31T05:00:09.891Z,98876.28
2022-12-31T05:00:41.355Z,98873.22
2022-12-31T05:01:12.836Z,98868.09
2022-12-31T05:01:44.412Z,98871.63
2022-12-31T05:02:16.153Z,98870.81
2022-12-31T05:02:48.000Z,98864.75
2022-12-31T05:03:19.595Z,98864.56
2022-12-31T05:03:51.045Z,98878.38
2022-12-31T05:04:22.491Z,98861.53
2022-12-31T05:04:53.945Z,98875.16
2022-12-31T05:05:25.376Z,98892.78
2022-12-31T05:05:56.805Z,98884.63
2022-12-31T05:06:28.245Z,98873.22
2022-12-31T05:06:59.779Z,98866.66
2022-12-31T05:07:31.195Z,98880.28
2022-12-31T05:08:02.668Z,98870.19
2022-12-31T05:08:34.196Z,98871.00
2022-12-31T05:09:05.700Z,98878.69
2022-12-31T05:09:37.137Z,98870.81
2022-12-31T05:10:08.481Z,98877.06
2022-12-31T05:10:39.969Z,98887.97
2022-12-31T05:11:11.455Z,98875.31
2022-12-31T05:11:42.971Z,98875.00
2022-12-31T05:12:14.435Z,98883.50
2022-12-31T05:12:45.848Z,98880.28
2022-12-31T05:13:17.295Z,98881.72
2022-12-31T05:13:48.725Z,98874.97
2022-12-31T05:14:20.154Z,98877.38
2022-12-31T05:14:51.604Z,98889.41
2022-12-31T05:15:23.053Z,98876.28
2022-12-31T05:15:54.481Z,98885.56
2022-12-31T05:16:25.925Z,98904.47
2022-12-31T05:16:57.370Z,98876.91
2022-12-31T05:17:28.827Z,98881.22
2022-12-31T05:18:00.372Z,98871.13
2022-12-31T05:18:31.827Z,98897.28
2022-12-31T05:19:03.302Z,98870.81
2022-12-31T05:19:34.692Z,98874.66
2022-12-31T05:20:06.116Z,98896.94
2022-12-31T05:20:37.651Z,98880.59
2022-12-31T05:21:09.077Z,98873.53
2022-12-31T05:21:40.546Z,98874.66
2022-12-31T05:22:11.971Z,98877.38
2022-12-31T05:22:43.747Z,98863.75
2022-12-31T05:23:15.195Z,98876.59
2022-12-31T05:23:46.635Z,98868.91
2022-12-31T05:24:18.081Z,98877.06
2022-12-31T05:24:49.468Z,98876.28
2022-12-31T05:25:20.883Z,98874.66
2022-12-31T05:25:52.303Z,98868.59
2022-12-31T05:26:23.691Z,98874.03
2022-12-31T05:26:55.059Z,98867.78
2022-12-31T05:27:26.530Z,98870.00
2022-12-31T05:27:58.103Z,98869.38
2022-12-31T05:28:29.554Z,98868.59
2022-12-31T05:29:00.999Z,98860.72
2022-12-31T05:29:32.424Z,98854.63
2022-12-31T05:30:06.814Z,98860.91
2022-12-31T05:30:38.280Z,98868.28
2022-12-31T05:31:09.758Z,98879.47
2022-12-31T05:31:41.197Z,98866.66
2022-12-31T05:32:12.632Z,98868.09
2022-12-31T05:32:44.099Z,98873.84
2022-12-31T05:33:15.568Z,98868.91
2022-12-31T05:33:47.220Z,98889.41
2022-12-31T05:34:18.651Z,98881.72
2022-12-31T05:34:50.061Z,98888.78
2022-12-31T05:35:21.473Z,98880.28
2022-12-31T05:35:52.897Z,98868.28
2022-12-31T05:36:24.330Z,98971.03
2022-12-31T05:36:55.803Z,98876.94
2022-12-31T05:37:27.302Z,98848.06
2022-12-31T05:37:58.777Z,98869.56
2022-12-31T05:38:30.257Z,98875.50
2022-12-31T05:39:01.667Z,98862.81
2022-12-31T05:39:33.053Z,98858.81
2022-12-31T05:40:04.547Z,98879.97
2022-12-31T05:40:36.016Z,98871.00
2022-12-31T05:41:07.528Z,98873.41
2022-12-31T05:41:38.891Z,98877.25
2022-12-31T05:42:10.288Z,98852.22
2022-12-31T05:42:41.905Z,98857.69
2022-12-31T05:43:13.293Z,98860.09
2022-12-31T05:43:44.729Z,98880.59
2022-12-31T05:44:16.172Z,98871.31
2022-12-31T05:44:47.658Z,98864.25
2022-12-31T05:45:19.105Z,98864.75
2022-12-31T05:45:50.591Z,98879.66
2022-12-31T05:46:22.025Z,98871.81
2022-12-31T05:46:53.463Z,98873.84
2022-12-31T05:47:24.914Z,98875.16
2022-12-31T05:47:56.492Z,98877.06
2022-12-31T05:48:27.914Z,98881.72
2022-12-31T05:48:59.314Z,98874.16
2022-12-31T05:49:30.722Z,98868.91
2022-12-31T05:50:02.204Z,98880.28
2022-12-31T05:50:33.620Z,98888.16
2022-12-31T05:51:05.105Z,98866.34
2022-12-31T05:51:36.557Z,98881.91
2022-12-31T05:52:08.057Z,98871.81
2022-12-31T05:52:42.711Z,98872.13
2022-12-31T05:53:17.150Z,98863.75
2022-12-31T05:53:48.624Z,98882.53
2022-12-31T05:54:20.218Z,98893.28
2022-12-31T05:54:51.635Z,98874.53
2022-12-31T05:55:23.039Z,98878.06
2022-12-31T05:55:54.497Z,98877.88
2022-12-31T05:56:25.925Z,98903.69
2022-12-31T05:56:57.521Z,98878.06
2022-12-31T05:57:28.924Z,98868.75
2022-12-31T05:58:00.434Z,98880.47
2022-12-31T05:58:31.923Z,98884.47
2022-12-31T05:59:03.369Z,98912.53
2022-12-31T05:59:34.807Z,98873.41
2022-12-31T06:00:06.221Z,98870.06
2022-12-31T06:00:37.651Z,98867.94
2022-12-31T06:01:09.072Z,98892.47
2022-12-31T06:01:40.540Z,98886.53
2022-12-31T06:02:11.963Z,98889.75
2022-12-31T06:02:43.405Z,98875.66
2022-12-31T06:03:15.008Z,98890.56
2022-12-31T06:03:46.698Z,98888.63
2022-12-31T06:04:18.152Z,98883.50
2022-12-31T06:04:49.599Z,98889.75
2022-12-31T06:05:25.874Z,98913.47
2022-12-31T06:05:57.753Z,98904.69
2022-12-31T06:06:29.159Z,98904.69
2022-12-31T06:07:00.570Z,98908.22
2022-12-31T06:07:31.979Z,98908.22
2022-12-31T06:08:03.396Z,98920.22
2022-12-31T06:08:34.912Z,98913.16
2022-12-31T06:09:06.536Z,98891.84
2022-12-31T06:09:37.991Z,98895.22
2022-12-31T06:10:09.410Z,98907.09
2022-12-31T06:10:40.806Z,98920.06